sensor_id;sensor_type;location;lat;lon;timestamp;pressure;altitude;pressure_sealevel;temperature;humidity
75013;BME280;63567;49.956;20.130;2024-02-04T00:00:02;96899.44;;;8.57;90.19
75013;BME280;63567;49.956;20.130;2024-02-04T00:02:28;96892.38;;;8.57;90.21
75013;BME280;63567;49.956;20.130;2024-02-04T00:04:54;96895.16;;;8.56;90.71
75013;BME280;63567;49.956;20.130;2024-02-04T00:07:22;96901.22;;;8.56;91.08
75013;BME280;63567;49.956;20.130;2024-02-04T00:09:47;96896.34;;;8.53;90.58
75013;BME280;63567;49.956;20.130;2024-02-04T00:12:13;96899.78;;;8.54;90.79
75013;BME280;63567;49.956;20.130;2024-02-04T00:14:38;96891.25;;;8.52;91.35
75013;BME280;63567;49.956;20.130;2024-02-04T00:17:03;96905.22;;;8.52;91.32
75013;BME280;63567;49.956;20.130;2024-02-04T00:19:29;96903.41;;;8.53;91.30
75013;BME280;63567;49.956;20.130;2024-02-04T00:21:54;96887.34;;;8.48;91.71
75013;BME280;63567;49.956;20.130;2024-02-04T00:24:19;96874.22;;;8.48;91.54
75013;BME280;63567;49.956;20.130;2024-02-04T00:26:45;96880.50;;;8.47;91.75
75013;BME280;63567;49.956;20.130;2024-02-04T00:29:10;96878.50;;;8.49;91.90
75013;BME280;63567;49.956;20.130;2024-02-04T00:31:35;96882.75;;;8.50;92.02
75013;BME280;63567;49.956;20.130;2024-02-04T00:34:00;96870.78;;;8.47;92.45
75013;BME280;63567;49.956;20.130;2024-02-04T00:36:26;96863.09;;;8.46;92.46
75013;BME280;63567;49.956;20.130;2024-02-04T00:38:51;96858.47;;;8.48;92.09
75013;BME280;63567;49.956;20.130;2024-02-04T00:41:17;96847.72;;;8.42;91.80
75013;BME280;63567;49.956;20.130;2024-02-04T00:43:42;96855.41;;;8.44;92.07
75013;BME280;63567;49.956;20.130;2024-02-04T00:46:07;96847.06;;;8.40;92.12
75013;BME280;63567;49.956;20.130;2024-02-04T00:48:35;96850.50;;;8.41;92.07
75013;BME280;63567;49.956;20.130;2024-02-04T00:51:00;96859.03;;;8.43;92.27
75013;BME280;63567;49.956;20.130;2024-02-04T00:53:26;96864.25;;;8.43;92.15
75013;BME280;63567;49.956;20.130;2024-02-04T00:55:53;96865.44;;;8.40;92.19
75013;BME280;63567;49.956;20.130;2024-02-04T00:58:18;96866.25;;;8.41;92.10
75013;BME280;63567;49.956;20.130;2024-02-04T01:00:43;96854.09;;;8.40;92.12
75013;BME280;63567;49.956;20.130;2024-02-04T01:03:09;96869.72;;;8.41;92.00
75013;BME280;63567;49.956;20.130;2024-02-04T01:05:34;96878.56;;;8.40;92.40
75013;BME280;63567;49.956;20.130;2024-02-04T01:07:59;96870.19;;;8.37;92.49
75013;BME280;63567;49.956;20.130;2024-02-04T01:10:25;96865.31;;;8.34;92.32
75013;BME280;63567;49.956;20.130;2024-02-04T01:12:51;96863.31;;;8.36;92.83
75013;BME280;63567;49.956;20.130;2024-02-04T01:15:16;96867.56;;;8.37;93.17
75013;BME280;63567;49.956;20.130;2024-02-04T01:17:41;96863.50;;;8.34;93.04
75013;BME280;63567;49.956;20.130;2024-02-04T01:20:07;96862.69;;;8.34;93.11
75013;BME280;63567;49.956;20.130;2024-02-04T01:22:32;96860.22;;;8.32;93.33
75013;BME280;63567;49.956;20.130;2024-02-04T01:24:58;96858.44;;;8.33;93.32
75013;BME280;63567;49.956;20.130;2024-02-04T01:27:23;96867.31;;;8.32;93.19
75013;BME280;63567;49.956;20.130;2024-02-04T01:29:48;96856.00;;;8.31;93.43
75013;BME280;63567;49.956;20.130;2024-02-04T01:32:14;96856.00;;;8.31;93.42
75013;BME280;63567;49.956;20.130;2024-02-04T01:34:39;96851.72;;;8.30;93.24
75013;BME280;63567;49.956;20.130;2024-02-04T01:37:05;96845.84;;;8.28;92.79
75013;BME280;63567;49.956;20.130;2024-02-04T01:39:30;96844.84;;;8.29;93.30
75013;BME280;63567;49.956;20.130;2024-02-04T01:41:55;96856.53;;;8.27;93.63
75013;BME280;63567;49.956;20.130;2024-02-04T01:44:20;96852.47;;;8.24;93.45
75013;BME280;63567;49.956;20.130;2024-02-04T01:46:47;96850.66;;;8.25;93.53
75013;BME280;63567;49.956;20.130;2024-02-04T01:49:13;96849.00;;;8.23;93.66
75013;BME280;63567;49.956;20.130;2024-02-04T01:51:38;96853.44;;;8.23;94.00
75013;BME280;63567;49.956;20.130;2024-02-04T01:54:04;96850.16;;;8.21;93.91
75013;BME280;63567;49.956;20.130;2024-02-04T01:56:31;96835.94;;;8.15;94.32
75013;BME280;63567;49.956;20.130;2024-02-04T01:58:58;96844.66;;;8.16;94.24
75013;BME280;63567;49.956;20.130;2024-02-04T02:01:24;96836.94;;;8.14;94.75
75013;BME280;63567;49.956;20.130;2024-02-04T02:03:50;96832.72;;;8.13;94.66
75013;BME280;63567;49.956;20.130;2024-02-04T02:06:16;96835.34;;;8.13;94.88
75013;BME280;63567;49.956;20.130;2024-02-04T02:08:42;96841.72;;;8.11;95.19
75013;BME280;63567;49.956;20.130;2024-02-04T02:11:27;96834.88;;;8.10;95.32
75013;BME280;63567;49.956;20.130;2024-02-04T02:14:01;96841.72;;;8.11;95.31
75013;BME280;63567;49.956;20.130;2024-02-04T02:16:30;96841.09;;;8.09;95.66
75013;BME280;63567;49.956;20.130;2024-02-04T02:19:04;96832.56;;;8.07;95.41
75013;BME280;63567;49.956;20.130;2024-02-04T02:22:06;96826.09;;;8.02;95.00
75013;BME280;63567;49.956;20.130;2024-02-04T02:24:42;96828.69;;;8.02;95.99
75013;BME280;63567;49.956;20.130;2024-02-04T02:27:07;96820.00;;;8.02;95.78
75013;BME280;63567;49.956;20.130;2024-02-04T02:29:32;96813.78;;;8.03;95.44
75013;BME280;63567;49.956;20.130;2024-02-04T02:31:58;96817.38;;;8.02;95.81
75013;BME280;63567;49.956;20.130;2024-02-04T02:34:25;96811.50;;;8.00;95.54
75013;BME280;63567;49.956;20.130;2024-02-04T02:36:57;96823.78;;;7.99;95.52
75013;BME280;63567;49.956;20.130;2024-02-04T02:39:39;96815.47;;;7.96;95.73
75013;BME280;63567;49.956;20.130;2024-02-04T02:42:07;96799.75;;;7.96;95.74
75013;BME280;63567;49.956;20.130;2024-02-04T02:44:34;96817.91;;;7.97;95.90
75013;BME280;63567;49.956;20.130;2024-02-04T02:47:01;96813.84;;;7.95;95.92
75013;BME280;63567;49.956;20.130;2024-02-04T02:49:28;96822.34;;;7.97;96.52
75013;BME280;63567;49.956;20.130;2024-02-04T02:51:53;96822.34;;;7.97;95.83
75013;BME280;63567;49.956;20.130;2024-02-04T02:54:18;96821.53;;;7.96;96.24
75013;BME280;63567;49.956;20.130;2024-02-04T02:56:43;96806.78;;;7.95;95.88
75013;BME280;63567;49.956;20.130;2024-02-04T02:59:09;96806.97;;;7.94;96.10
75013;BME280;63567;49.956;20.130;2024-02-04T03:01:34;96804.16;;;7.95;96.29
75013;BME280;63567;49.956;20.130;2024-02-04T03:03:59;96802.38;;;7.96;96.74
75013;BME280;63567;49.956;20.130;2024-02-04T03:06:24;96818.09;;;7.96;96.49
75013;BME280;63567;49.956;20.130;2024-02-04T03:08:50;96828.22;;;7.99;96.26
75013;BME280;63567;49.956;20.130;2024-02-04T03:11:15;96814.66;;;7.95;96.76
75013;BME280;63567;49.956;20.130;2024-02-04T03:13:40;96839.25;;;7.94;96.89
75013;BME280;63567;49.956;20.130;2024-02-04T03:16:12;96828.59;;;7.96;96.59
75013;BME280;63567;49.956;20.130;2024-02-04T03:18:42;96885.66;;;7.94;97.09
75013;BME280;63567;49.956;20.130;2024-02-04T03:21:16;96855.69;;;7.88;97.15
75013;BME280;63567;49.956;20.130;2024-02-04T03:23:43;96880.41;;;7.94;97.25
75013;BME280;63567;49.956;20.130;2024-02-04T03:26:09;96860.28;;;7.86;97.05
75013;BME280;63567;49.956;20.130;2024-02-04T03:28:35;96861.63;;;7.82;96.86
75013;BME280;63567;49.956;20.130;2024-02-04T03:31:00;96868.56;;;7.75;96.74
75013;BME280;63567;49.956;20.130;2024-02-04T03:33:25;96875.16;;;7.71;97.05
75013;BME280;63567;49.956;20.130;2024-02-04T03:35:51;96885.13;;;7.75;96.13
75013;BME280;63567;49.956;20.130;2024-02-04T03:38:16;96866.16;;;7.65;95.96
75013;BME280;63567;49.956;20.130;2024-02-04T03:40:41;96857.84;;;7.61;96.32
75013;BME280;63567;49.956;20.130;2024-02-04T03:43:08;96850.00;;;7.61;96.13
75013;BME280;63567;49.956;20.130;2024-02-04T03:45:35;96857.22;;;7.59;96.24
75013;BME280;63567;49.956;20.130;2024-02-04T03:48:00;96848.69;;;7.57;95.67
75013;BME280;63567;49.956;20.130;2024-02-04T03:50:26;96836.13;;;7.53;95.48
75013;BME280;63567;49.956;20.130;2024-02-04T03:52:51;96843.13;;;7.52;95.66
75013;BME280;63567;49.956;20.130;2024-02-04T03:55:16;96846.75;;;7.51;94.48
75013;BME280;63567;49.956;20.130;2024-02-04T03:57:41;96841.69;;;7.50;94.92
75013;BME280;63567;49.956;20.130;2024-02-04T04:00:07;96838.44;;;7.48;94.89
75013;BME280;63567;49.956;20.130;2024-02-04T04:02:33;96845.47;;;7.47;94.63
75013;BME280;63567;49.956;20.130;2024-02-04T04:04:58;96848.47;;;7.44;94.53
75013;BME280;63567;49.956;20.130;2024-02-04T04:07:23;96845.84;;;7.44;94.93
75013;BME280;63567;49.956;20.130;2024-02-04T04:09:48;96840.28;;;7.39;94.54
75013;BME280;63567;49.956;20.130;2024-02-04T04:12:14;96828.19;;;7.38;94.24
75013;BME280;63567;49.956;20.130;2024-02-04T04:14:39;96847.50;;;7.37;94.53
75013;BME280;63567;49.956;20.130;2024-02-04T04:17:04;96836.56;;;7.33;94.94
75013;BME280;63567;49.956;20.130;2024-02-04T04:19:29;96842.13;;;7.30;94.45
75013;BME280;63567;49.956;20.130;2024-02-04T04:21:55;96848.81;;;7.33;94.50
75013;BME280;63567;49.956;20.130;2024-02-04T04:24:21;96843.28;;;7.28;94.52
75013;BME280;63567;49.956;20.130;2024-02-04T04:26:47;96847.06;;;7.25;94.31
75013;BME280;63567;49.956;20.130;2024-02-04T04:29:12;96844.63;;;7.24;94.11
75013;BME280;63567;49.956;20.130;2024-02-04T04:31:37;96849.88;;;7.24;94.68
75013;BME280;63567;49.956;20.130;2024-02-04T04:34:03;96841.34;;;7.22;94.41
75013;BME280;63567;49.956;20.130;2024-02-04T04:36:28;96844.63;;;7.24;94.12
75013;BME280;63567;49.956;20.130;2024-02-04T04:38:53;96844.16;;;7.20;94.08
75013;BME280;63567;49.956;20.130;2024-02-04T04:41:18;96833.22;;;7.16;94.48
75013;BME280;63567;49.956;20.130;2024-02-04T04:43:44;96833.22;;;7.16;94.34
75013;BME280;63567;49.956;20.130;2024-02-04T04:46:09;96844.50;;;7.17;94.60
75013;BME280;63567;49.956;20.130;2024-02-04T04:48:34;96856.63;;;7.18;94.41
75013;BME280;63567;49.956;20.130;2024-02-04T04:51:00;96840.41;;;7.14;94.55
75013;BME280;63567;49.956;20.130;2024-02-04T04:53:25;96845.66;;;7.14;94.73
75013;BME280;63567;49.956;20.130;2024-02-04T04:55:50;96842.88;;;7.16;94.93
75013;BME280;63567;49.956;20.130;2024-02-04T04:58:17;96843.03;;;7.14;94.78
75013;BME280;63567;49.956;20.130;2024-02-04T05:00:42;96828.47;;;7.12;95.01
75013;BME280;63567;49.956;20.130;2024-02-04T05:03:07;96822.91;;;7.15;94.83
75013;BME280;63567;49.956;20.130;2024-02-04T05:05:32;96819.81;;;7.11;94.82
75013;BME280;63567;49.956;20.130;2024-02-04T05:07:58;96837.16;;;7.12;94.86
75013;BME280;63567;49.956;20.130;2024-02-04T05:10:23;96829.66;;;7.09;95.04
75013;BME280;63567;49.956;20.130;2024-02-04T05:12:48;96837.81;;;7.14;95.00
75013;BME280;63567;49.956;20.130;2024-02-04T05:15:13;96827.47;;;7.13;94.88
75013;BME280;63567;49.956;20.130;2024-02-04T05:17:39;96834.53;;;7.12;94.87
75013;BME280;63567;49.956;20.130;2024-02-04T05:20:04;96832.91;;;7.11;94.92
75013;BME280;63567;49.956;20.130;2024-02-04T05:22:30;96816.72;;;7.08;95.01
75013;BME280;63567;49.956;20.130;2024-02-04T05:24:56;96834.53;;;7.12;95.01
75013;BME280;63567;49.956;20.130;2024-02-04T05:27:21;96859.09;;;7.11;94.89
75013;BME280;63567;49.956;20.130;2024-02-04T05:29:46;96844.00;;;7.13;94.80
75013;BME280;63567;49.956;20.130;2024-02-04T05:32:11;96864.16;;;7.13;94.95
75013;BME280;63567;49.956;20.130;2024-02-04T05:34:37;96861.72;;;7.11;95.12
75013;BME280;63567;49.956;20.130;2024-02-04T05:37:03;96855.50;;;7.12;95.55
75013;BME280;63567;49.956;20.130;2024-02-04T05:39:28;96863.34;;;7.12;95.36
75013;BME280;63567;49.956;20.130;2024-02-04T05:41:53;96867.25;;;7.16;95.43
75013;BME280;63567;49.956;20.130;2024-02-04T05:44:18;96861.22;;;7.16;95.00
75013;BME280;63567;49.956;20.130;2024-02-04T05:46:44;96863.50;;;7.11;95.72
75013;BME280;63567;49.956;20.130;2024-02-04T05:49:09;96857.47;;;7.10;95.88
75013;BME280;63567;49.956;20.130;2024-02-04T05:51:38;96853.22;;;7.09;95.90
75013;BME280;63567;49.956;20.130;2024-02-04T05:54:07;96838.47;;;7.08;96.17
75013;BME280;63567;49.956;20.130;2024-02-04T05:56:33;96839.81;;;7.04;95.88
75013;BME280;63567;49.956;20.130;2024-02-04T05:58:58;96864.38;;;7.03;96.75
75013;BME280;63567;49.956;20.130;2024-02-04T06:01:24;96862.91;;;7.01;96.80
75013;BME280;63567;49.956;20.130;2024-02-04T06:03:49;96866.34;;;7.01;96.74
75013;BME280;63567;49.956;20.130;2024-02-04T06:06:15;96875.53;;;6.97;97.27
75013;BME280;63567;49.956;20.130;2024-02-04T06:08:42;96868.16;;;7.01;97.02
75013;BME280;63567;49.956;20.130;2024-02-04T06:11:11;96866.84;;;6.96;96.88
75013;BME280;63567;49.956;20.130;2024-02-04T06:13:38;96867.81;;;6.95;97.33
75013;BME280;63567;49.956;20.130;2024-02-04T06:16:03;96877.50;;;6.95;97.14
75013;BME280;63567;49.956;20.130;2024-02-04T06:18:29;96878.94;;;6.97;96.92
75013;BME280;63567;49.956;20.130;2024-02-04T06:20:54;96893.69;;;6.98;96.91
75013;BME280;63567;49.956;20.130;2024-02-04T06:23:19;96889.94;;;6.93;96.81
75013;BME280;63567;49.956;20.130;2024-02-04T06:25:45;96909.06;;;6.93;97.50
75013;BME280;63567;49.956;20.130;2024-02-04T06:28:10;96909.59;;;6.89;97.65
75013;BME280;63567;49.956;20.130;2024-02-04T06:30:35;96901.56;;;6.90;97.62
75013;BME280;63567;49.956;20.130;2024-02-04T06:33:01;96890.75;;;6.85;98.13
75013;BME280;63567;49.956;20.130;2024-02-04T06:35:27;96859.53;;;6.84;98.00
75013;BME280;63567;49.956;20.130;2024-02-04T06:37:53;96839.41;;;6.84;98.36
75013;BME280;63567;49.956;20.130;2024-02-04T06:40:18;96832.34;;;6.85;98.42
75013;BME280;63567;49.956;20.130;2024-02-04T06:42:43;96853.31;;;6.85;98.00
75013;BME280;63567;49.956;20.130;2024-02-04T06:45:09;96853.63;;;6.90;98.62
75013;BME280;63567;49.956;20.130;2024-02-04T06:47:35;96861.13;;;6.93;98.63
75013;BME280;63567;49.956;20.130;2024-02-04T06:50:00;96861.28;;;6.91;98.42
75013;BME280;63567;49.956;20.130;2024-02-04T06:52:28;96866.03;;;6.96;98.34
75013;BME280;63567;49.956;20.130;2024-02-04T06:54:53;96866.22;;;6.94;98.48
75013;BME280;63567;49.956;20.130;2024-02-04T06:57:18;96860.63;;;6.97;98.79
75013;BME280;63567;49.956;20.130;2024-02-04T06:59:44;96862.06;;;7.00;98.65
75013;BME280;63567;49.956;20.130;2024-02-04T07:02:09;96867.16;;;7.02;98.75
75013;BME280;63567;49.956;20.130;2024-02-04T07:04:34;96860.09;;;7.02;98.86
75013;BME280;63567;49.956;20.130;2024-02-04T07:07:00;96859.47;;;7.00;98.72
75013;BME280;63567;49.956;20.130;2024-02-04T07:09:25;96866.00;;;7.04;98.97
75013;BME280;63567;49.956;20.130;2024-02-04T07:11:50;96866.00;;;7.04;98.73
75013;BME280;63567;49.956;20.130;2024-02-04T07:14:15;96853.38;;;7.08;98.08
75013;BME280;63567;49.956;20.130;2024-02-04T07:16:41;96862.22;;;7.07;98.36
75013;BME280;63567;49.956;20.130;2024-02-04T07:19:06;96857.63;;;7.09;98.10
75013;BME280;63567;49.956;20.130;2024-02-04T07:21:32;96861.25;;;7.08;97.58
75013;BME280;63567;49.956;20.130;2024-02-04T07:23:57;96850.25;;;7.12;97.16
75013;BME280;63567;49.956;20.130;2024-02-04T07:26:22;96836.50;;;7.10;97.03
75013;BME280;63567;49.956;20.130;2024-02-04T07:28:47;96832.06;;;7.11;96.31
75013;BME280;63567;49.956;20.130;2024-02-04T07:31:13;96827.69;;;7.11;96.20
75013;BME280;63567;49.956;20.130;2024-02-04T07:33:38;96851.72;;;7.15;95.33
75013;BME280;63567;49.956;20.130;2024-02-04T07:36:03;96846.00;;;7.11;95.56
75013;BME280;63567;49.956;20.130;2024-02-04T07:38:29;96848.28;;;7.14;95.46
75013;BME280;63567;49.956;20.130;2024-02-04T07:40:54;96858.09;;;7.12;95.56
75013;BME280;63567;49.956;20.130;2024-02-04T07:43:21;96874.63;;;7.13;95.52
75013;BME280;63567;49.956;20.130;2024-02-04T07:45:46;96862.22;;;7.07;94.63
75013;BME280;63567;49.956;20.130;2024-02-04T07:48:12;96846.50;;;7.07;94.67
75013;BME280;63567;49.956;20.130;2024-02-04T07:50:37;96876.78;;;7.09;94.90
75013;BME280;63567;49.956;20.130;2024-02-04T07:53:02;96870.22;;;7.13;94.09
75013;BME280;63567;49.956;20.130;2024-02-04T07:55:28;96879.88;;;7.13;94.58
75013;BME280;63567;49.956;20.130;2024-02-04T07:57:54;96866.78;;;7.13;93.79
75013;BME280;63567;49.956;20.130;2024-02-04T08:00:19;96865.31;;;7.10;92.95
75013;BME280;63567;49.956;20.130;2024-02-04T08:02:44;96876.97;;;7.08;92.93
75013;BME280;63567;49.956;20.130;2024-02-04T08:05:10;96881.53;;;7.14;91.89
75013;BME280;63567;49.956;20.130;2024-02-04T08:07:35;96872.38;;;7.10;92.44
75013;BME280;63567;49.956;20.130;2024-02-04T08:10:01;96894.47;;;7.07;92.30
75013;BME280;63567;49.956;20.130;2024-02-04T08:12:26;96881.19;;;7.09;91.65
75013;BME280;63567;49.956;20.130;2024-02-04T08:14:51;96892.66;;;7.16;90.16
75013;BME280;63567;49.956;20.130;2024-02-04T08:17:16;96895.94;;;7.10;89.28
75013;BME280;63567;49.956;20.130;2024-02-04T08:19:42;96873.41;;;7.01;89.70
75013;BME280;63567;49.956;20.130;2024-02-04T08:22:07;96874.66;;;7.05;89.13
75013;BME280;63567;49.956;20.130;2024-02-04T08:24:34;96884.69;;;7.01;87.13
75013;BME280;63567;49.956;20.130;2024-02-04T08:26:59;96893.69;;;6.98;88.05
75013;BME280;63567;49.956;20.130;2024-02-04T08:29:25;96919.56;;;6.93;88.18
75013;BME280;63567;49.956;20.130;2024-02-04T08:31:52;96910.38;;;6.97;87.72
75013;BME280;63567;49.956;20.130;2024-02-04T08:37:50;96898.09;;;6.98;88.36
75013;BME280;63567;49.956;20.130;2024-02-04T08:40:15;96903.97;;;7.00;88.61
75013;BME280;63567;49.956;20.130;2024-02-04T08:42:40;96902.38;;;6.99;88.23
75013;BME280;63567;49.956;20.130;2024-02-04T08:45:06;96909.22;;;7.00;87.99
75013;BME280;63567;49.956;20.130;2024-02-04T08:47:32;96914.31;;;6.93;87.59
75013;BME280;63567;49.956;20.130;2024-02-04T08:49:57;96910.88;;;7.01;86.66
75013;BME280;63567;49.956;20.130;2024-02-04T08:52:23;96893.69;;;6.98;86.82
75013;BME280;63567;49.956;20.130;2024-02-04T08:54:49;96890.94;;;6.92;86.63
75013;BME280;63567;49.956;20.130;2024-02-04T08:57:15;96905.94;;;6.98;87.13
75013;BME280;63567;49.956;20.130;2024-02-04T08:59:41;96895.16;;;7.01;86.96
75013;BME280;63567;49.956;20.130;2024-02-04T09:02:07;96906.78;;;6.98;87.38
75013;BME280;63567;49.956;20.130;2024-02-04T09:04:32;96900.38;;;7.01;87.85
75013;BME280;63567;49.956;20.130;2024-02-04T09:07:05;96894.63;;;7.06;88.25
75013;BME280;63567;49.956;20.130;2024-02-04T09:09:30;96885.00;;;6.98;88.62
75013;BME280;63567;49.956;20.130;2024-02-04T09:11:55;96900.66;;;7.14;88.53
75013;BME280;63567;49.956;20.130;2024-02-04T09:14:21;96915.72;;;7.20;89.14
75013;BME280;63567;49.956;20.130;2024-02-04T09:16:46;96917.81;;;7.25;88.81
75013;BME280;63567;49.956;20.130;2024-02-04T09:19:11;96911.78;;;7.25;88.88
75013;BME280;63567;49.956;20.130;2024-02-04T09:21:36;96921.38;;;7.32;88.79
75013;BME280;63567;49.956;20.130;2024-02-04T09:24:02;96923.03;;;7.33;88.58
75013;BME280;63567;49.956;20.130;2024-02-04T09:26:27;96928.91;;;7.35;88.83
75013;BME280;63567;49.956;20.130;2024-02-04T09:28:52;96929.56;;;7.37;89.05
75013;BME280;63567;49.956;20.130;2024-02-04T09:31:17;96925.66;;;7.33;88.75
75013;BME280;63567;49.956;20.130;2024-02-04T09:33:43;96941.00;;;7.45;89.16
75013;BME280;63567;49.956;20.130;2024-02-04T09:36:08;96935.91;;;7.43;88.53
75013;BME280;63567;49.956;20.130;2024-02-04T09:38:33;96940.00;;;7.46;88.31
75013;BME280;63567;49.956;20.130;2024-02-04T09:41:00;96955.72;;;7.46;88.53
75013;BME280;63567;49.956;20.130;2024-02-04T09:43:25;96939.22;;;7.37;88.75
75013;BME280;63567;49.956;20.130;2024-02-04T09:45:51;96961.78;;;7.46;88.48
75013;BME280;63567;49.956;20.130;2024-02-04T09:48:18;96955.72;;;7.46;88.92
75013;BME280;63567;49.956;20.130;2024-02-04T09:50:45;96947.84;;;7.46;88.44
75013;BME280;63567;49.956;20.130;2024-02-04T09:53:14;96938.69;;;7.41;88.88
75013;BME280;63567;49.956;20.130;2024-02-04T09:55:40;96937.84;;;7.49;89.09
75013;BME280;63567;49.956;20.130;2024-02-04T09:58:06;96943.59;;;7.53;88.78
75013;BME280;63567;49.956;20.130;2024-02-04T10:00:33;96943.38;;;7.54;88.86
75013;BME280;63567;49.956;20.130;2024-02-04T10:02:58;96948.31;;;7.57;88.97
75013;BME280;63567;49.956;20.130;2024-02-04T10:05:23;96931.28;;;7.53;88.93
75013;BME280;63567;49.956;20.130;2024-02-04T10:07:49;96918.16;;;7.61;89.44
75013;BME280;63567;49.956;20.130;2024-02-04T10:10:15;96919.44;;;7.66;89.50
75013;BME280;63567;49.956;20.130;2024-02-04T10:12:40;96897.16;;;7.61;89.19
75013;BME280;63567;49.956;20.130;2024-02-04T10:15:08;96891.25;;;7.68;88.89
75013;BME280;63567;49.956;20.130;2024-02-04T10:17:33;96894.47;;;7.70;89.12
75013;BME280;63567;49.956;20.130;2024-02-04T10:20:00;96895.47;;;7.69;88.71
75013;BME280;63567;49.956;20.130;2024-02-04T10:22:26;96892.50;;;7.72;88.63
75013;BME280;63567;49.956;20.130;2024-02-04T10:24:51;96905.94;;;7.77;88.98
75013;BME280;63567;49.956;20.130;2024-02-04T10:27:17;96885.88;;;7.84;88.89
75013;BME280;63567;49.956;20.130;2024-02-04T10:29:43;96892.16;;;7.98;89.32
75013;BME280;63567;49.956;20.130;2024-02-04T10:32:09;96900.44;;;8.10;89.90
75013;BME280;63567;49.956;20.130;2024-02-04T10:34:37;96891.19;;;8.22;89.39
75013;BME280;63567;49.956;20.130;2024-02-04T10:37:03;96881.06;;;8.34;89.68
75013;BME280;63567;49.956;20.130;2024-02-04T10:39:28;96876.03;;;8.47;89.44
75013;BME280;63567;49.956;20.130;2024-02-04T10:41:55;96874.78;;;8.58;89.32
75013;BME280;63567;49.956;20.130;2024-02-04T10:44:23;96859.22;;;8.71;89.09
75013;BME280;63567;49.956;20.130;2024-02-04T10:46:50;96865.41;;;8.78;88.19
75013;BME280;63567;49.956;20.130;2024-02-04T10:49:18;96849.91;;;8.83;86.85
75013;BME280;63567;49.956;20.130;2024-02-04T10:51:44;96840.38;;;8.82;86.76
75013;BME280;63567;49.956;20.130;2024-02-04T10:54:11;96840.28;;;8.91;85.58
75013;BME280;63567;49.956;20.130;2024-02-04T10:56:43;96843.72;;;9.06;85.61
75013;BME280;63567;49.956;20.130;2024-02-04T10:59:11;96844.19;;;9.10;85.05
75013;BME280;63567;49.956;20.130;2024-02-04T11:01:40;96843.44;;;9.16;84.78
75013;BME280;63567;49.956;20.130;2024-02-04T11:04:10;96829.38;;;9.23;84.39
75013;BME280;63567;49.956;20.130;2024-02-04T11:06:40;96858.34;;;9.30;83.37
75013;BME280;63567;49.956;20.130;2024-02-04T11:09:06;96834.00;;;9.21;82.21
75013;BME280;63567;49.956;20.130;2024-02-04T11:11:33;96824.41;;;9.29;82.28
75013;BME280;63567;49.956;20.130;2024-02-04T11:14:03;96806.34;;;9.25;82.11
75013;BME280;63567;49.956;20.130;2024-02-04T11:27:46;96787.66;;;9.78;82.09
75013;BME280;63567;49.956;20.130;2024-02-04T11:30:12;96804.56;;;9.91;81.23
75013;BME280;63567;49.956;20.130;2024-02-04T11:32:37;96795.97;;;10.03;80.90
75013;BME280;63567;49.956;20.130;2024-02-04T11:35:03;96801.72;;;10.14;79.91
75013;BME280;63567;49.956;20.130;2024-02-04T11:37:32;96777.88;;;10.22;80.70
75013;BME280;63567;49.956;20.130;2024-02-04T11:39:58;96774.97;;;10.38;80.63
75013;BME280;63567;49.956;20.130;2024-02-04T11:42:24;96734.69;;;10.44;79.41
75013;BME280;63567;49.956;20.130;2024-02-04T11:44:50;96769.25;;;10.63;78.74
75013;BME280;63567;49.956;20.130;2024-02-04T11:47:26;96781.06;;;10.74;78.32
75013;BME280;63567;49.956;20.130;2024-02-04T11:49:55;96773.38;;;10.79;78.11
75013;BME280;63567;49.956;20.130;2024-02-04T11:52:21;96762.44;;;10.88;78.36
75013;BME280;63567;49.956;20.130;2024-02-04T11:54:46;96766.34;;;10.99;78.27
75013;BME280;63567;49.956;20.130;2024-02-04T11:57:14;96757.66;;;11.05;77.96
75013;BME280;63567;49.956;20.130;2024-02-04T11:59:40;96764.78;;;11.18;77.90
75013;BME280;63567;49.956;20.130;2024-02-04T12:02:05;96756.28;;;11.23;77.82
75013;BME280;63567;49.956;20.130;2024-02-04T12:04:31;96744.75;;;11.30;78.42
75013;BME280;63567;49.956;20.130;2024-02-04T12:06:58;96737.06;;;11.42;78.32
75013;BME280;63567;49.956;20.130;2024-02-04T12:09:23;96721.47;;;11.54;77.70
75013;BME280;63567;49.956;20.130;2024-02-04T12:11:49;96738.72;;;11.70;77.53
75013;BME280;63567;49.956;20.130;2024-02-04T12:14:14;96713.97;;;11.78;76.86
75013;BME280;63567;49.956;20.130;2024-02-04T12:16:40;96714.38;;;11.88;77.11
75013;BME280;63567;49.956;20.130;2024-02-04T12:19:05;96712.75;;;11.94;76.22
75013;BME280;63567;49.956;20.130;2024-02-04T12:21:31;96713.16;;;11.97;75.51
75013;BME280;63567;49.956;20.130;2024-02-04T12:23:58;96700.56;;;11.92;74.99
75013;BME280;63567;49.956;20.130;2024-02-04T12:26:24;96709.09;;;11.88;74.28
75013;BME280;63567;49.956;20.130;2024-02-04T12:28:52;96706.44;;;11.75;73.86
75013;BME280;63567;49.956;20.130;2024-02-04T12:31:18;96688.56;;;11.63;74.46
75013;BME280;63567;49.956;20.130;2024-02-04T12:33:52;96695.88;;;11.48;74.49
75013;BME280;63567;49.956;20.130;2024-02-04T12:36:18;96668.47;;;11.36;75.08
75013;BME280;63567;49.956;20.130;2024-02-04T12:38:50;96671.72;;;11.18;75.45
75013;BME280;63567;49.956;20.130;2024-02-04T12:41:15;96664.59;;;11.05;75.91
75013;BME280;63567;49.956;20.130;2024-02-04T12:43:41;96673.91;;;10.94;76.45
75013;BME280;63567;49.956;20.130;2024-02-04T12:46:06;96658.66;;;10.76;76.85
75013;BME280;63567;49.956;20.130;2024-02-04T12:48:33;96658.41;;;10.71;77.50
75013;BME280;63567;49.956;20.130;2024-02-04T12:51:00;96656.59;;;10.58;78.14
75013;BME280;63567;49.956;20.130;2024-02-04T12:53:25;96650.44;;;10.44;78.69
75013;BME280;63567;49.956;20.130;2024-02-04T12:55:58;96641.47;;;10.32;79.44
75013;BME280;63567;49.956;20.130;2024-02-04T12:58:24;96635.50;;;10.17;80.22
75013;BME280;63567;49.956;20.130;2024-02-04T13:00:59;96636.28;;;10.11;80.59
75013;BME280;63567;49.956;20.130;2024-02-04T13:03:24;96644.34;;;10.02;81.11
75013;BME280;63567;49.956;20.130;2024-02-04T13:05:50;96625.25;;;9.87;81.45
75013;BME280;63567;49.956;20.130;2024-02-04T13:08:18;96635.91;;;9.79;82.32